sensor_id;sensor_type;location;lat;lon;timestamp;P1;durP1;ratioP1;P2;durP2;ratioP2
30149;SDS011;16962;48.646;9.026;2022-11-15T00:00:56;18.65;;;8.85;;
30149;SDS011;16962;48.646;9.026;2022-11-15T00:03:43;18.40;;;10.07;;
30149;SDS011;16962;48.646;9.026;2022-11-15T00:06:31;30.88;;;13.90;;
30149;SDS011;16962;48.646;9.026;2022-11-15T00:09:18;17.10;;;8.95;;
30149;SDS011;16962;48.646;9.026;2022-11-15T00:12:07;17.83;;;9.82;;
30149;SDS011;16962;48.646;9.026;2022-11-15T00:14:57;18.23;;;9.35;;
30149;SDS011;16962;48.646;9.026;2022-11-15T00:17:49;23.50;;;11.88;;
30149;SDS011;16962;48.646;9.026;2022-11-15T00:20:37;21.95;;;11.63;;
30149;SDS011;16962;48.646;9.026;2022-11-15T00:23:26;18.60;;;11.20;;
30149;SDS011;16962;48.646;9.026;2022-11-15T00:26:14;18.35;;;10.50;;
30149;SDS011;16962;48.646;9.026;2022-11-15T00:29:01;17.75;;;10.68;;
30149;SDS011;16962;48.646;9.026;2022-11-15T00:31:51;17.40;;;10.57;;
30149;SDS011;16962;48.646;9.026;2022-11-15T00:34:41;16.65;;;11.18;;
30149;SDS011;16962;48.646;9.026;2022-11-15T00:37:28;18.08;;;11.80;;
30149;SDS011;16962;48.646;9.026;2022-11-15T00:40:15;20.10;;;11.95;;
30149;SDS011;16962;48.646;9.026;2022-11-15T00:43:05;20.27;;;12.63;;
30149;SDS011;16962;48.646;9.026;2022-11-15T00:45:52;22.65;;;13.60;;
30149;SDS011;16962;48.646;9.026;2022-11-15T00:48:40;23.95;;;14.73;;
30149;SDS011;16962;48.646;9.026;2022-11-15T00:51:27;25.13;;;14.57;;
30149;SDS011;16962;48.646;9.026;2022-11-15T00:54:14;22.33;;;14.20;;
30149;SDS011;16962;48.646;9.026;2022-11-15T00:57:02;21.52;;;13.63;;
30149;SDS011;16962;48.646;9.026;2022-11-15T00:59:52;21.42;;;12.88;;
30149;SDS011;16962;48.646;9.026;2022-11-15T01:02:42;23.38;;;12.45;;
30149;SDS011;16962;48.646;9.026;2022-11-15T01:05:29;15.95;;;11.52;;
30149;SDS011;16962;48.646;9.026;2022-11-15T01:08:19;15.93;;;10.82;;
30149;SDS011;16962;48.646;9.026;2022-11-15T01:11:07;11.05;;;7.57;;
30149;SDS011;16962;48.646;9.026;2022-11-15T01:13:56;16.83;;;10.27;;
30149;SDS011;16962;48.646;9.026;2022-11-15T01:16:45;18.33;;;10.35;;
30149;SDS011;16962;48.646;9.026;2022-11-15T01:19:33;16.88;;;10.68;;
30149;SDS011;16962;48.646;9.026;2022-11-15T01:22:20;13.57;;;9.63;;
30149;SDS011;16962;48.646;9.026;2022-11-15T01:25:07;14.52;;;9.82;;
30149;SDS011;16962;48.646;9.026;2022-11-15T01:27:54;16.55;;;8.95;;
30149;SDS011;16962;48.646;9.026;2022-11-15T01:30:41;17.38;;;9.55;;
30149;SDS011;16962;48.646;9.026;2022-11-15T01:33:29;13.35;;;9.75;;
30149;SDS011;16962;48.646;9.026;2022-11-15T01:36:18;20.48;;;10.35;;
30149;SDS011;16962;48.646;9.026;2022-11-15T01:39:10;21.77;;;10.40;;
30149;SDS011;16962;48.646;9.026;2022-11-15T01:41:59;16.63;;;9.60;;
30149;SDS011;16962;48.646;9.026;2022-11-15T01:44:47;12.90;;;9.52;;
30149;SDS011;16962;48.646;9.026;2022-11-15T01:47:41;12.23;;;9.35;;
30149;SDS011;16962;48.646;9.026;2022-11-15T01:50:32;15.27;;;9.95;;
30149;SDS011;16962;48.646;9.026;2022-11-15T01:53:22;13.73;;;7.82;;
30149;SDS011;16962;48.646;9.026;2022-11-15T01:56:16;13.75;;;8.70;;
30149;SDS011;16962;48.646;9.026;2022-11-15T01:59:06;12.18;;;8.07;;
30149;SDS011;16962;48.646;9.026;2022-11-15T02:01:58;13.73;;;7.78;;
30149;SDS011;16962;48.646;9.026;2022-11-15T02:04:47;12.90;;;8.40;;
30149;SDS011;16962;48.646;9.026;2022-11-15T02:07:34;12.05;;;8.45;;
30149;SDS011;16962;48.646;9.026;2022-11-15T02:10:23;14.50;;;7.72;;
30149;SDS011;16962;48.646;9.026;2022-11-15T02:13:10;15.43;;;8.55;;
30149;SDS011;16962;48.646;9.026;2022-11-15T02:22:19;11.45;;;7.35;;
30149;SDS011;16962;48.646;9.026;2022-11-15T02:29:03;14.55;;;7.07;;
30149;SDS011;16962;48.646;9.026;2022-11-15T02:32:05;13.02;;;7.50;;
30149;SDS011;16962;48.646;9.026;2022-11-15T02:35:05;6.03;;;5.13;;
30149;SDS011;16962;48.646;9.026;2022-11-15T02:38:16;12.60;;;6.47;;
30149;SDS011;16962;48.646;9.026;2022-11-15T02:41:15;11.38;;;6.07;;
30149;SDS011;16962;48.646;9.026;2022-11-15T02:44:12;9.43;;;6.80;;
30149;SDS011;16962;48.646;9.026;2022-11-15T02:47:09;10.63;;;6.00;;
30149;SDS011;16962;48.646;9.026;2022-11-15T02:50:03;12.43;;;6.53;;
30149;SDS011;16962;48.646;9.026;2022-11-15T02:52:55;8.88;;;6.10;;
30149;SDS011;16962;48.646;9.026;2022-11-15T02:55:46;10.43;;;6.10;;
30149;SDS011;16962;48.646;9.026;2022-11-15T02:58:48;9.55;;;6.20;;
30149;SDS011;16962;48.646;9.026;2022-11-15T03:10:39;9.88;;;5.82;;
30149;SDS011;16962;48.646;9.026;2022-11-15T03:19:49;10.00;;;5.75;;
30149;SDS011;16962;48.646;9.026;2022-11-15T03:22:40;9.85;;;5.00;;
30149;SDS011;16962;48.646;9.026;2022-11-15T03:25:30;7.00;;;5.05;;
30149;SDS011;16962;48.646;9.026;2022-11-15T03:28:21;8.70;;;5.97;;
30149;SDS011;16962;48.646;9.026;2022-11-15T03:31:13;12.93;;;7.18;;
30149;SDS011;16962;48.646;9.026;2022-11-15T03:37:20;8.65;;;6.15;;
30149;SDS011;16962;48.646;9.026;2022-11-15T03:40:14;12.55;;;7.53;;
30149;SDS011;16962;48.646;9.026;2022-11-15T03:46:19;9.57;;;6.60;;
30149;SDS011;16962;48.646;9.026;2022-11-15T03:49:19;11.68;;;5.93;;
30149;SDS011;16962;48.646;9.026;2022-11-15T03:52:20;12.88;;;6.70;;
30149;SDS011;16962;48.646;9.026;2022-11-15T03:55:12;8.02;;;5.78;;
30149;SDS011;16962;48.646;9.026;2022-11-15T03:58:02;10.80;;;6.07;;
30149;SDS011;16962;48.646;9.026;2022-11-15T04:00:49;8.00;;;5.47;;
30149;SDS011;16962;48.646;9.026;2022-11-15T04:03:37;9.88;;;6.00;;
30149;SDS011;16962;48.646;9.026;2022-11-15T04:06:26;8.40;;;5.38;;
30149;SDS011;16962;48.646;9.026;2022-11-15T04:09:13;8.90;;;5.60;;
30149;SDS011;16962;48.646;9.026;2022-11-15T04:12:01;10.35;;;5.63;;
30149;SDS011;16962;48.646;9.026;2022-11-15T04:14:48;7.22;;;5.45;;
30149;SDS011;16962;48.646;9.026;2022-11-15T04:17:56;10.48;;;5.53;;
30149;SDS011;16962;48.646;9.026;2022-11-15T04:20:43;10.65;;;5.60;;
30149;SDS011;16962;48.646;9.026;2022-11-15T04:23:49;11.40;;;5.72;;
30149;SDS011;16962;48.646;9.026;2022-11-15T04:26:39;9.57;;;5.60;;
30149;SDS011;16962;48.646;9.026;2022-11-15T04:29:26;8.35;;;5.43;;
30149;SDS011;16962;48.646;9.026;2022-11-15T04:32:23;7.53;;;5.35;;
30149;SDS011;16962;48.646;9.026;2022-11-15T04:35:12;10.23;;;6.10;;
30149;SDS011;16962;48.646;9.026;2022-11-15T04:38:02;10.63;;;6.80;;
30149;SDS011;16962;48.646;9.026;2022-11-15T04:40:50;9.30;;;5.80;;
30149;SDS011;16962;48.646;9.026;2022-11-15T04:43:39;7.82;;;5.72;;
30149;SDS011;16962;48.646;9.026;2022-11-15T04:46:26;6.72;;;5.63;;
30149;SDS011;16962;48.646;9.026;2022-11-15T04:49:14;9.10;;;6.18;;
30149;SDS011;16962;48.646;9.026;2022-11-15T04:52:01;10.18;;;6.25;;
30149;SDS011;16962;48.646;9.026;2022-11-15T04:54:48;10.00;;;6.63;;
30149;SDS011;16962;48.646;9.026;2022-11-15T04:57:39;10.90;;;5.40;;
30149;SDS011;16962;48.646;9.026;2022-11-15T05:00:26;10.23;;;5.90;;
30149;SDS011;16962;48.646;9.026;2022-11-15T05:03:14;6.68;;;5.55;;
30149;SDS011;16962;48.646;9.026;2022-11-15T05:06:20;8.85;;;6.03;;
30149;SDS011;16962;48.646;9.026;2022-11-15T05:09:09;16.65;;;6.95;;
30149;SDS011;16962;48.646;9.026;2022-11-15T05:11:56;17.15;;;6.53;;
30149;SDS011;16962;48.646;9.026;2022-11-15T05:14:43;9.30;;;6.60;;
30149;SDS011;16962;48.646;9.026;2022-11-15T05:17:30;15.07;;;9.15;;
30149;SDS011;16962;48.646;9.026;2022-11-15T05:20:20;11.18;;;7.15;;
30149;SDS011;16962;48.646;9.026;2022-11-15T05:23:07;10.90;;;8.35;;
30149;SDS011;16962;48.646;9.026;2022-11-15T05:26:00;13.50;;;7.97;;
30149;SDS011;16962;48.646;9.026;2022-11-15T05:28:55;25.63;;;14.20;;
30149;SDS011;16962;48.646;9.026;2022-11-15T05:31:46;17.10;;;10.68;;
30149;SDS011;16962;48.646;9.026;2022-11-15T05:34:54;15.10;;;9.88;;
30149;SDS011;16962;48.646;9.026;2022-11-15T05:37:44;14.40;;;9.05;;
30149;SDS011;16962;48.646;9.026;2022-11-15T05:40:32;12.05;;;8.98;;
30149;SDS011;16962;48.646;9.026;2022-11-15T05:43:21;15.43;;;8.77;;
30149;SDS011;16962;48.646;9.026;2022-11-15T05:46:09;11.20;;;8.40;;
30149;SDS011;16962;48.646;9.026;2022-11-15T05:48:56;15.30;;;8.52;;
30149;SDS011;16962;48.646;9.026;2022-11-15T05:51:46;14.07;;;8.35;;
30149;SDS011;16962;48.646;9.026;2022-11-15T05:54:34;14.65;;;9.30;;
30149;SDS011;16962;48.646;9.026;2022-11-15T05:57:23;13.30;;;8.57;;
30149;SDS011;16962;48.646;9.026;2022-11-15T06:00:11;14.48;;;8.52;;
30149;SDS011;16962;48.646;9.026;2022-11-15T06:03:01;16.70;;;9.20;;
30149;SDS011;16962;48.646;9.026;2022-11-15T06:05:48;15.20;;;8.95;;
30149;SDS011;16962;48.646;9.026;2022-11-15T06:08:35;13.13;;;8.13;;
30149;SDS011;16962;48.646;9.026;2022-11-15T06:11:22;12.00;;;8.20;;
30149;SDS011;16962;48.646;9.026;2022-11-15T06:14:12;12.15;;;7.88;;
30149;SDS011;16962;48.646;9.026;2022-11-15T06:17:01;13.13;;;8.20;;
30149;SDS011;16962;48.646;9.026;2022-11-15T06:19:56;14.65;;;8.63;;
30149;SDS011;16962;48.646;9.026;2022-11-15T06:22:43;12.32;;;7.40;;
30149;SDS011;16962;48.646;9.026;2022-11-15T06:25:31;16.40;;;8.00;;
30149;SDS011;16962;48.646;9.026;2022-11-15T06:28:18;13.63;;;7.65;;
30149;SDS011;16962;48.646;9.026;2022-11-15T06:31:06;14.95;;;8.45;;
30149;SDS011;16962;48.646;9.026;2022-11-15T06:34:01;11.15;;;7.70;;
30149;SDS011;16962;48.646;9.026;2022-11-15T06:36:51;13.07;;;8.30;;
30149;SDS011;16962;48.646;9.026;2022-11-15T06:39:38;11.98;;;7.45;;
30149;SDS011;16962;48.646;9.026;2022-11-15T06:42:25;14.05;;;8.30;;
30149;SDS011;16962;48.646;9.026;2022-11-15T06:45:12;12.65;;;8.35;;
30149;SDS011;16962;48.646;9.026;2022-11-15T06:47:59;11.32;;;8.02;;
30149;SDS011;16962;48.646;9.026;2022-11-15T06:50:56;13.43;;;8.82;;
30149;SDS011;16962;48.646;9.026;2022-11-15T06:53:45;14.63;;;9.32;;
30149;SDS011;16962;48.646;9.026;2022-11-15T06:56:33;16.90;;;9.60;;
30149;SDS011;16962;48.646;9.026;2022-11-15T06:59:28;17.38;;;8.82;;
30149;SDS011;16962;48.646;9.026;2022-11-15T07:02:16;13.23;;;9.60;;
30149;SDS011;16962;48.646;9.026;2022-11-15T07:05:07;15.43;;;8.43;;
30149;SDS011;16962;48.646;9.026;2022-11-15T07:07:54;9.77;;;7.85;;
30149;SDS011;16962;48.646;9.026;2022-11-15T07:10:42;15.98;;;10.75;;
30149;SDS011;16962;48.646;9.026;2022-11-15T07:13:32;14.57;;;9.73;;
30149;SDS011;16962;48.646;9.026;2022-11-15T07:16:21;16.00;;;11.27;;
30149;SDS011;16962;48.646;9.026;2022-11-15T07:19:10;20.80;;;12.90;;
30149;SDS011;16962;48.646;9.026;2022-11-15T07:21:58;21.85;;;12.50;;
30149;SDS011;16962;48.646;9.026;2022-11-15T07:24:45;13.20;;;10.07;;
30149;SDS011;16962;48.646;9.026;2022-11-15T07:27:32;11.05;;;7.60;;
30149;SDS011;16962;48.646;9.026;2022-11-15T07:30:19;11.10;;;7.60;;
30149;SDS011;16962;48.646;9.026;2022-11-15T07:33:07;13.65;;;8.73;;
30149;SDS011;16962;48.646;9.026;2022-11-15T07:35:54;12.27;;;9.68;;
30149;SDS011;16962;48.646;9.026;2022-11-15T07:38:49;20.02;;;13.07;;
30149;SDS011;16962;48.646;9.026;2022-11-15T07:41:37;14.68;;;9.18;;
30149;SDS011;16962;48.646;9.026;2022-11-15T07:44:26;12.98;;;5.75;;
30149;SDS011;16962;48.646;9.026;2022-11-15T07:47:15;10.15;;;4.97;;
30149;SDS011;16962;48.646;9.026;2022-11-15T07:50:04;9.07;;;4.90;;
30149;SDS011;16962;48.646;9.026;2022-11-15T07:52:55;5.38;;;3.80;;
30149;SDS011;16962;48.646;9.026;2022-11-15T07:55:44;4.97;;;3.28;;
30149;SDS011;16962;48.646;9.026;2022-11-15T07:58:31;8.20;;;3.17;;
30149;SDS011;16962;48.646;9.026;2022-11-15T08:01:18;6.57;;;3.42;;
30149;SDS011;16962;48.646;9.026;2022-11-15T08:04:07;8.52;;;4.65;;
30149;SDS011;16962;48.646;9.026;2022-11-15T08:06:54;8.27;;;4.68;;
30149;SDS011;16962;48.646;9.026;2022-11-15T08:09:43;5.70;;;4.00;;
30149;SDS011;16962;48.646;9.026;2022-11-15T08:12:30;6.43;;;4.32;;
30149;SDS011;16962;48.646;9.026;2022-11-15T08:15:18;5.47;;;3.95;;
30149;SDS011;16962;48.646;9.026;2022-11-15T08:18:08;5.72;;;3.78;;
30149;SDS011;16962;48.646;9.026;2022-11-15T08:20:58;7.50;;;3.67;;
30149;SDS011;16962;48.646;9.026;2022-11-15T08:23:47;5.45;;;3.80;;
30149;SDS011;16962;48.646;9.026;2022-11-15T08:26:36;7.03;;;4.38;;
30149;SDS011;16962;48.646;9.026;2022-11-15T08:29:26;9.93;;;4.30;;
30149;SDS011;16962;48.646;9.026;2022-11-15T08:32:13;5.03;;;3.90;;
30149;SDS011;16962;48.646;9.026;2022-11-15T08:35:10;7.22;;;4.65;;
30149;SDS011;16962;48.646;9.026;2022-11-15T08:38:00;7.22;;;4.18;;
30149;SDS011;16962;48.646;9.026;2022-11-15T08:40:47;7.63;;;3.35;;
30149;SDS011;16962;48.646;9.026;2022-11-15T08:43:34;7.45;;;3.83;;
30149;SDS011;16962;48.646;9.026;2022-11-15T08:46:22;8.80;;;3.35;;
30149;SDS011;16962;48.646;9.026;2022-11-15T08:49:10;5.35;;;3.47;;
30149;SDS011;16962;48.646;9.026;2022-11-15T08:52:00;8.02;;;3.78;;
30149;SDS011;16962;48.646;9.026;2022-11-15T08:54:50;6.22;;;3.92;;
30149;SDS011;16962;48.646;9.026;2022-11-15T08:57:37;6.95;;;4.18;;
30149;SDS011;16962;48.646;9.026;2022-11-15T09:00:27;7.55;;;4.95;;
30149;SDS011;16962;48.646;9.026;2022-11-15T09:03:14;7.07;;;3.92;;
30149;SDS011;16962;48.646;9.026;2022-11-15T09:06:04;5.68;;;3.40;;
30149;SDS011;16962;48.646;9.026;2022-11-15T09:08:51;3.60;;;2.95;;
30149;SDS011;16962;48.646;9.026;2022-11-15T09:11:39;7.90;;;3.88;;
30149;SDS011;16962;48.646;9.026;2022-11-15T09:14:27;7.47;;;3.92;;
30149;SDS011;16962;48.646;9.026;2022-11-15T09:17:17;6.25;;;4.25;;
30149;SDS011;16962;48.646;9.026;2022-11-15T09:20:10;10.00;;;3.35;;
30149;SDS011;16962;48.646;9.026;2022-11-15T09:23:00;4.50;;;3.40;;
30149;SDS011;16962;48.646;9.026;2022-11-15T09:25:51;7.40;;;3.30;;
30149;SDS011;16962;48.646;9.026;2022-11-15T09:28:41;8.55;;;2.50;;
30149;SDS011;16962;48.646;9.026;2022-11-15T09:31:29;3.92;;;2.40;;
30149;SDS011;16962;48.646;9.026;2022-11-15T09:34:16;6.20;;;2.78;;
30149;SDS011;16962;48.646;9.026;2022-11-15T09:37:03;7.68;;;2.83;;
30149;SDS011;16962;48.646;9.026;2022-11-15T09:39:53;5.45;;;3.03;;
30149;SDS011;16962;48.646;9.026;2022-11-15T09:49:02;3.80;;;2.58;;
30149;SDS011;16962;48.646;9.026;2022-11-15T09:51:51;8.88;;;2.65;;
30149;SDS011;16962;48.646;9.026;2022-11-15T09:57:47;11.02;;;3.05;;
30149;SDS011;16962;48.646;9.026;2022-11-15T10:01:02;6.35;;;3.22;;
30149;SDS011;16962;48.646;9.026;2022-11-15T10:03:57;6.07;;;2.83;;
30149;SDS011;16962;48.646;9.026;2022-11-15T10:09:52;6.75;;;3.20;;
30149;SDS011;16962;48.646;9.026;2022-11-15T10:13:02;6.10;;;3.00;;
30149;SDS011;16962;48.646;9.026;2022-11-15T10:15:51;6.78;;;3.33;;
30149;SDS011;16962;48.646;9.026;2022-11-15T10:28:24;5.20;;;2.88;;
30149;SDS011;16962;48.646;9.026;2022-11-15T10:31:27;5.70;;;2.80;;
30149;SDS011;16962;48.646;9.026;2022-11-15T10:34:17;6.38;;;3.60;;
30149;SDS011;16962;48.646;9.026;2022-11-15T10:37:06;5.38;;;2.05;;
30149;SDS011;16962;48.646;9.026;2022-11-15T10:40:14;4.38;;;2.20;;
30149;SDS011;16962;48.646;9.026;2022-11-15T10:43:05;4.05;;;1.63;;
30149;SDS011;16962;48.646;9.026;2022-11-15T10:45:55;5.20;;;1.87;;
30149;SDS011;16962;48.646;9.026;2022-11-15T10:49:28;4.15;;;1.85;;
30149;SDS011;16962;48.646;9.026;2022-11-15T10:52:18;3.38;;;1.90;;
30149;SDS011;16962;48.646;9.026;2022-11-15T10:58:19;2.75;;;1.70;;
30149;SDS011;16962;48.646;9.026;2022-11-15T11:01:14;4.63;;;1.60;;
30149;SDS011;16962;48.646;9.026;2022-11-15T11:04:05;3.00;;;1.70;;
30149;SDS011;16962;48.646;9.026;2022-11-15T11:06:58;2.65;;;1.70;;
30149;SDS011;16962;48.646;9.026;2022-11-15T11:09:48;6.07;;;1.77;;
30149;SDS011;16962;48.646;9.026;2022-11-15T11:13:12;4.85;;;1.88;;
30149;SDS011;16962;48.646;9.026;2022-11-15T11:16:22;4.45;;;1.55;;
30149;SDS011;16962;48.646;9.026;2022-11-15T11:19:33;5.18;;;2.13;;
30149;SDS011;16962;48.646;9.026;2022-11-15T11:47:12;4.70;;;1.77;;
30149;SDS011;16962;48.646;9.026;2022-11-15T11:50:13;3.60;;;1.80;;
30149;SDS011;16962;48.646;9.026;2022-11-15T11:56:28;5.82;;;1.77;;
30149;SDS011;16962;48.646;9.026;2022-11-15T12:03:02;2.53;;;1.70;;
30149;SDS011;16962;48.646;9.026;2022-11-15T12:05:59;3.05;;;1.67;;
30149;SDS011;16962;48.646;9.026;2022-11-15T12:08:53;4.90;;;1.77;;
30149;SDS011;16962;48.646;9.026;2022-11-15T12:11:57;4.30;;;2.55;;
30149;SDS011;16962;48.646;9.026;2022-11-15T12:15:04;4.70;;;1.75;;
30149;SDS011;16962;48.646;9.026;2022-11-15T12:17:56;5.75;;;1.85;;
30149;SDS011;16962;48.646;9.026;2022-11-15T12:20:52;3.22;;;1.75;;
30149;SDS011;16962;48.646;9.026;2022-11-15T12:23:48;2.88;;;1.77;;
30149;SDS011;16962;48.646;9.026;2022-11-15T12:26:44;3.15;;;2.20;;
30149;SDS011;16962;48.646;9.026;2022-11-15T12:29:49;1.98;;;1.60;;
30149;SDS011;16962;48.646;9.026;2022-11-15T12:32:49;4.32;;;1.95;;
30149;SDS011;16962;48.646;9.026;2022-11-15T12:35:57;6.20;;;2.15;;
30149;SDS011;16962;48.646;9.026;2022-11-15T12:47:36;4.05;;;1.88;;
30149;SDS011;16962;48.646;9.026;2022-11-15T12:53:41;2.47;;;1.70;;
30149;SDS011;16962;48.646;9.026;2022-11-15T12:56:28;5.57;;;1.80;;
30149;SDS011;16962;48.646;9.026;2022-11-15T12:59:47;5.00;;;2.00;;
30149;SDS011;16962;48.646;9.026;2022-11-15T13:02:42;1.73;;;1.45;;
30149;SDS011;16962;48.646;9.026;2022-11-15T13:08:36;3.60;;;1.80;;
30149;SDS011;16962;48.646;9.026;2022-11-15T13:11:44;4.22;;;2.03;;
30149;SDS011;16962;48.646;9.026;2022-11-15T13:17:46;5.72;;;2.00;;
30149;SDS011;16962;48.646;9.026;2022-11-15T13:20:33;4.38;;;2.00;;
30149;SDS011;16962;48.646;9.026;2022-11-15T13:23:21;3.67;;;2.10;;
30149;SDS011;16962;48.646;9.026;2022-11-15T13:26:14;2.92;;;1.95;;
30149;SDS011;16962;48.646;9.026;2022-11-15T13:29:17;4.32;;;2.20;;
30149;SDS011;16962;48.646;9.026;2022-11-15T13:32:10;3.60;;;1.92;;
30149;SDS011;16962;48.646;9.026;2022-11-15T13:35:02;4.40;;;2.05;;
30149;SDS011;16962;48.646;9.026;2022-11-15T13:37:55;5.30;;;1.85;;
30149;SDS011;16962;48.646;9.026;2022-11-15T13:40:42;2.83;;;1.80;;
30149;SDS011;16962;48.646;9.026;2022-11-15T13:43:36;4.55;;;2.50;;
30149;SDS011;16962;48.646;9.026;2022-11-15T13:46:29;4.35;;;2.00;;
30149;SDS011;16962;48.646;9.026;2022-11-15T13:49:19;3.08;;;2.00;;
30149;SDS011;16962;48.646;9.026;2022-11-15T13:52:17;5.22;;;2.13;;
30149;SDS011;16962;48.646;9.026;2022-11-15T13:55:10;6.47;;;2.28;;
30149;SDS011;16962;48.646;9.026;2022-11-15T13:58:04;4.88;;;2.35;;
30149;SDS011;16962;48.646;9.026;2022-11-15T14:01:03;5.35;;;2.30;;
30149;SDS011;16962;48.646;9.026;2022-11-15T14:04:23;4.13;;;2.40;;
30149;SDS011;16962;48.646;9.026;2022-11-15T14:08:00;5.60;;;2.10;;
30149;SDS011;16962;48.646;9.026;2022-11-15T14:16:56;3.80;;;1.90;;
30149;SDS011;16962;48.646;9.026;2022-11-15T14:19:54;3.70;;;2.40;;
30149;SDS011;16962;48.646;9.026;2022-11-15T14:22:50;4.53;;;2.25;;
30149;SDS011;16962;48.646;9.026;2022-11-15T14:25:51;3.85;;;2.20;;
30149;SDS011;16962;48.646;9.026;2022-11-15T14:28:47;4.30;;;2.42;;
30149;SDS011;16962;48.646;9.026;2022-11-15T14:31:35;4.82;;;2.58;;
30149;SDS011;16962;48.646;9.026;2022-11-15T14:34:31;4.78;;;2.63;;
30149;SDS011;16962;48.646;9.026;2022-11-15T14:37:20;5.03;;;3.38;;
30149;SDS011;16962;48.646;9.026;2022-11-15T14:40:14;6.10;;;3.30;;
30149;SDS011;16962;48.646;9.026;2022-11-15T14:43:03;7.00;;;3.35;;
30149;SDS011;16962;48.646;9.026;2022-11-15T14:45:54;5.95;;;2.50;;
30149;SDS011;16962;48.646;9.026;2022-11-15T14:48:44;6.70;;;2.83;;
30149;SDS011;16962;48.646;9.026;2022-11-15T14:51:32;13.23;;;3.85;;
30149;SDS011;16962;48.646;9.026;2022-11-15T14:54:22;5.97;;;3.50;;
30149;SDS011;16962;48.646;9.026;2022-11-15T14:57:09;4.78;;;3.08;;
30149;SDS011;16962;48.646;9.026;2022-11-15T15:00:00;9.32;;;4.03;;
30149;SDS011;16962;48.646;9.026;2022-11-15T15:02:53;8.10;;;4.30;;
30149;SDS011;16962;48.646;9.026;2022-11-15T15:05:46;7.30;;;4.13;;
30149;SDS011;16962;48.646;9.026;2022-11-15T15:08:37;5.68;;;3.90;;
30149;SDS011;16962;48.646;9.026;2022-11-15T15:11:27;6.43;;;3.30;;
30149;SDS011;16962;48.646;9.026;2022-11-15T15:14:19;6.68;;;3.30;;
30149;SDS011;16962;48.646;9.026;2022-11-15T15:17:31;7.15;;;3.33;;
30149;SDS011;16962;48.646;9.026;2022-11-15T15:20:29;5.50;;;3.53;;
30149;SDS011;16962;48.646;9.026;2022-11-15T15:23:21;9.20;;;3.83;;
30149;SDS011;16962;48.646;9.026;2022-11-15T15:26:11;8.85;;;4.38;;
30149;SDS011;16962;48.646;9.026;2022-11-15T15:29:01;9.77;;;5.80;;
30149;SDS011;16962;48.646;9.026;2022-11-15T15:31:55;6.95;;;4.50;;
30149;SDS011;16962;48.646;9.026;2022-11-15T15:34:47;8.85;;;4.93;;
30149;SDS011;16962;48.646;9.026;2022-11-15T15:37:34;23.17;;;13.25;;
30149;SDS011;16962;48.646;9.026;2022-11-15T15:40:22;12.43;;;5.65;;
30149;SDS011;16962;48.646;9.026;2022-11-15T15:43:31;15.07;;;5.70;;
30149;SDS011;16962;48.646;9.026;2022-11-15T15:46:23;12.40;;;5.33;;
30149;SDS011;16962;48.646;9.026;2022-11-15T15:49:11;10.40;;;5.90;;
30149;SDS011;16962;48.646;9.026;2022-11-15T15:52:01;8.38;;;4.88;;
30149;SDS011;16962;48.646;9.026;2022-11-15T15:54:57;9.25;;;5.05;;
30149;SDS011;16962;48.646;9.026;2022-11-15T15:57:46;13.23;;;8.13;;
30149;SDS011;16962;48.646;9.026;2022-11-15T16:00:33;10.68;;;6.43;;
30149;SDS011;16962;48.646;9.026;2022-11-15T16:03:27;9.73;;;5.25;;
30149;SDS011;16962;48.646;9.026;2022-11-15T16:06:35;11.57;;;5.67;;
30149;SDS011;16962;48.646;9.026;2022-11-15T16:09:26;10.30;;;5.07;;
30149;SDS011;16962;48.646;9.026;2022-11-15T16:12:34;10.20;;;5.60;;
30149;SDS011;16962;48.646;9.026;2022-11-15T16:15:23;9.50;;;5.18;;
30149;SDS011;16962;48.646;9.026;2022-11-15T16:18:15;8.73;;;5.30;;
30149;SDS011;16962;48.646;9.026;2022-11-15T16:21:03;29.63;;;18.40;;
30149;SDS011;16962;48.646;9.026;2022-11-15T16:23:51;16.25;;;10.65;;
30149;SDS011;16962;48.646;9.026;2022-11-15T16:26:38;26.73;;;15.07;;
30149;SDS011;16962;48.646;9.026;2022-11-15T16:29:25;16.23;;;9.93;;
30149;SDS011;16962;48.646;9.026;2022-11-15T16:32:13;18.05;;;11.52;;
30149;SDS011;16962;48.646;9.026;2022-11-15T16:35:00;13.23;;;7.25;;
30149;SDS011;16962;48.646;9.026;2022-11-15T16:37:47;11.75;;;6.10;;
30149;SDS011;16962;48.646;9.026;2022-11-15T16:40:36;11.30;;;8.05;;
30149;SDS011;16962;48.646;9.026;2022-11-15T16:43:24;20.20;;;12.05;;
30149;SDS011;16962;48.646;9.026;2022-11-15T16:49:14;10.38;;;5.88;;
30149;SDS011;16962;48.646;9.026;2022-11-15T16:52:04;14.07;;;6.80;;
30149;SDS011;16962;48.646;9.026;2022-11-15T16:54:54;10.90;;;5.72;;
30149;SDS011;16962;48.646;9.026;2022-11-15T16:57:41;6.93;;;4.93;;
30149;SDS011;16962;48.646;9.026;2022-11-15T17:00:29;8.00;;;5.07;;
30149;SDS011;16962;48.646;9.026;2022-11-15T17:03:17;11.38;;;7.40;;
30149;SDS011;16962;48.646;9.026;2022-11-15T17:06:05;12.13;;;5.88;;
30149;SDS011;16962;48.646;9.026;2022-11-15T17:08:54;11.82;;;7.00;;
30149;SDS011;16962;48.646;9.026;2022-11-15T17:11:43;9.90;;;6.90;;
30149;SDS011;16962;48.646;9.026;2022-11-15T17:14:37;9.38;;;6.63;;
30149;SDS011;16962;48.646;9.026;2022-11-15T17:17:25;9.90;;;7.30;;
30149;SDS011;16962;48.646;9.026;2022-11-15T17:20:14;8.95;;;6.85;;
30149;SDS011;16962;48.646;9.026;2022-11-15T17:23:03;10.13;;;7.35;;
30149;SDS011;16962;48.646;9.026;2022-11-15T17:25:59;10.57;;;6.63;;
30149;SDS011;16962;48.646;9.026;2022-11-15T17:29:12;11.68;;;5.80;;
30149;SDS011;16962;48.646;9.026;2022-11-15T17:32:00;11.80;;;5.22;;
30149;SDS011;16962;48.646;9.026;2022-11-15T17:34:50;13.10;;;6.35;;
30149;SDS011;16962;48.646;9.026;2022-11-15T17:37:40;16.75;;;8.95;;
30149;SDS011;16962;48.646;9.026;2022-11-15T17:40:27;14.02;;;8.20;;
30149;SDS011;16962;48.646;9.026;2022-11-15T17:43:17;13.43;;;7.20;;
30149;SDS011;16962;48.646;9.026;2022-11-15T17:46:05;9.30;;;7.20;;
30149;SDS011;16962;48.646;9.026;2022-11-15T17:48:55;13.88;;;6.70;;
30149;SDS011;16962;48.646;9.026;2022-11-15T17:51:43;8.50;;;6.07;;
30149;SDS011;16962;48.646;9.026;2022-11-15T17:54:35;8.35;;;6.13;;
30149;SDS011;16962;48.646;9.026;2022-11-15T17:57:23;10.70;;;6.93;;
30149;SDS011;16962;48.646;9.026;2022-11-15T18:00:10;10.88;;;6.22;;
30149;SDS011;16962;48.646;9.026;2022-11-15T18:02:58;13.02;;;7.18;;
30149;SDS011;16962;48.646;9.026;2022-11-15T18:05:46;10.98;;;6.90;;
30149;SDS011;16962;48.646;9.026;2022-11-15T18:08:37;12.40;;;7.20;;
30149;SDS011;16962;48.646;9.026;2022-11-15T18:11:27;12.35;;;7.93;;
30149;SDS011;16962;48.646;9.026;2022-11-15T18:14:17;11.60;;;7.32;;
30149;SDS011;16962;48.646;9.026;2022-11-15T18:17:05;12.00;;;8.40;;
30149;SDS011;16962;48.646;9.026;2022-11-15T18:19:52;18.45;;;10.73;;
30149;SDS011;16962;48.646;9.026;2022-11-15T18:22:39;20.35;;;11.02;;
30149;SDS011;16962;48.646;9.026;2022-11-15T18:25:31;18.85;;;11.50;;
30149;SDS011;16962;48.646;9.026;2022-11-15T18:28:19;21.60;;;13.90;;
30149;SDS011;16962;48.646;9.026;2022-11-15T18:31:15;17.55;;;12.20;;
30149;SDS011;16962;48.646;9.026;2022-11-15T18:34:09;15.35;;;10.38;;
30149;SDS011;16962;48.646;9.026;2022-11-15T18:36:58;11.85;;;8.50;;
30149;SDS011;16962;48.646;9.026;2022-11-15T18:39:46;12.40;;;7.82;;
30149;SDS011;16962;48.646;9.026;2022-11-15T18:42:39;16.25;;;7.72;;
30149;SDS011;16962;48.646;9.026;2022-11-15T18:45:29;13.73;;;7.18;;
30149;SDS011;16962;48.646;9.026;2022-11-15T18:48:20;11.25;;;6.35;;
30149;SDS011;16962;48.646;9.026;2022-11-15T18:51:09;12.15;;;6.97;;
30149;SDS011;16962;48.646;9.026;2022-11-15T18:53:59;9.48;;;6.93;;
30149;SDS011;16962;48.646;9.026;2022-11-15T18:56:50;7.82;;;5.63;;
30149;SDS011;16962;48.646;9.026;2022-11-15T18:59:40;9.80;;;6.10;;